createdAt,value
2022-08-24T00:00:48.543Z,30.92
2022-08-24T00:01:50.631Z,30.35
2022-08-24T00:02:53.063Z,30.75
2022-08-24T00:03:57.788Z,29.70
2022-08-24T00:05:01.843Z,30.83
2022-08-24T00:06:06.397Z,30.70
2022-08-24T00:07:15.897Z,30.23
2022-08-24T00:08:29.496Z,29.45
2022-08-24T00:09:35.029Z,30.77
2022-08-24T00:10:37.283Z,30.33
2022-08-24T00:11:39.266Z,29.90
2022-08-24T00:12:41.495Z,29.27
2022-08-24T00:13:44.706Z,30.27
2022-08-24T00:14:46.766Z,30.85
2022-08-24T00:15:52.141Z,30.38
2022-08-24T00:16:54.949Z,30.67
2022-08-24T00:17:57.311Z,30.73
2022-08-24T00:19:00.797Z,29.55
2022-08-24T00:20:03.478Z,29.00
2022-08-24T00:21:06.549Z,29.70
2022-08-24T00:22:10.207Z,30.20
2022-08-24T00:23:12.256Z,30.65
2022-08-24T00:24:14.882Z,29.35
2022-08-24T00:25:17.630Z,31.55
2022-08-24T00:26:29.266Z,30.42
2022-08-24T00:27:31.481Z,31.33
2022-08-24T00:28:34.419Z,31.35
2022-08-24T00:29:36.523Z,31.38
2022-08-24T00:30:38.884Z,32.90
2022-08-24T00:31:41.089Z,32.60
2022-08-24T00:32:45.453Z,31.33
2022-08-24T00:33:48.251Z,32.10
2022-08-24T00:34:58.316Z,31.10
2022-08-24T00:36:01.527Z,33.42
2022-08-24T00:37:04.552Z,32.38
2022-08-24T00:38:07.248Z,32.88
2022-08-24T00:39:09.541Z,33.72
2022-08-24T00:40:19.466Z,32.40
2022-08-24T00:41:22.677Z,32.03
2022-08-24T00:42:25.386Z,32.40
2022-08-24T00:43:28.959Z,32.97
2022-08-24T00:44:31.273Z,34.08
2022-08-24T00:45:48.801Z,32.53
2022-08-24T00:46:59.878Z,32.83
2022-08-24T00:48:12.152Z,32.42
2022-08-24T00:49:20.616Z,33.25
2022-08-24T00:50:27.364Z,34.25
2022-08-24T00:51:36.309Z,34.33
2022-08-24T00:52:46.696Z,32.38
2022-08-24T00:53:53.680Z,34.60
2022-08-24T00:55:00.844Z,34.03
2022-08-24T00:56:09.300Z,32.92
2022-08-24T00:57:13.811Z,34.25
2022-08-24T00:58:31.899Z,34.75
2022-08-24T00:59:39.260Z,33.63
2022-08-24T01:00:45.522Z,35.75
2022-08-24T01:01:52.229Z,34.47
2022-08-24T01:02:59.730Z,36.15
2022-08-24T01:04:03.372Z,35.25
2022-08-24T01:05:08.818Z,35.65
2022-08-24T01:06:12.692Z,35.78
2022-08-24T01:07:15.325Z,35.83
2022-08-24T01:08:17.530Z,36.88
2022-08-24T01:09:19.775Z,36.58
2022-08-24T01:10:26.300Z,37.00
2022-08-24T01:11:33.756Z,36.22
2022-08-24T01:12:39.577Z,36.75
2022-08-24T01:13:46.070Z,37.97
2022-08-24T01:14:48.700Z,38.33
2022-08-24T01:15:58.158Z,36.47
2022-08-24T01:17:18.945Z,36.47
2022-08-24T01:18:42.571Z,36.60
2022-08-24T01:19:49.239Z,38.90
2022-08-24T01:21:06.199Z,39.33
2022-08-24T01:22:25.964Z,38.38
2022-08-24T01:23:49.471Z,39.15
2022-08-24T01:24:54.055Z,41.75
2022-08-24T01:25:56.529Z,40.13
2022-08-24T01:27:02.921Z,40.35
2022-08-24T01:28:10.558Z,41.85
2022-08-24T01:29:29.235Z,41.22
2022-08-24T01:30:36.175Z,40.45
2022-08-24T01:31:39.611Z,41.47
2022-08-24T01:32:52.671Z,42.47
2022-08-24T01:33:55.881Z,42.25
2022-08-24T01:34:58.661Z,43.20
2022-08-24T01:36:08.819Z,43.17
2022-08-24T01:37:11.747Z,43.47
2022-08-24T01:38:16.857Z,44.58
2022-08-24T01:39:54.379Z,44.33
2022-08-24T01:41:01.991Z,44.90
2022-08-24T01:42:05.145Z,44.63
2022-08-24T01:43:11.156Z,46.42
2022-08-24T01:44:14.193Z,46.38
2022-08-24T01:45:16.941Z,46.10
2022-08-24T01:46:19.034Z,47.42
2022-08-24T01:47:21.156Z,44.30
2022-08-24T01:48:23.639Z,45.25
2022-08-24T01:49:31.419Z,46.25
2022-08-24T01:50:35.114Z,46.05
2022-08-24T01:51:37.239Z,45.53
2022-08-24T01:53:03.796Z,47.88
2022-08-24T01:54:06.065Z,48.75
2022-08-24T01:55:10.691Z,49.42
2022-08-24T01:56:13.268Z,47.10
2022-08-24T01:57:17.078Z,46.45
2022-08-24T01:58:20.633Z,45.42
2022-08-24T01:59:23.089Z,47.25
2022-08-24T02:00:26.236Z,46.58
2022-08-24T02:01:30.812Z,47.25
2022-08-24T02:02:33.283Z,46.63
2022-08-24T02:03:35.347Z,46.50
2022-08-24T02:04:37.864Z,47.58
2022-08-24T02:05:41.353Z,45.22
2022-08-24T02:06:46.398Z,48.10
2022-08-24T02:07:51.039Z,46.60
2022-08-24T02:08:53.257Z,47.00
2022-08-24T02:09:55.365Z,47.88
2022-08-24T02:10:57.465Z,47.15
2022-08-24T02:12:00.537Z,46.97
2022-08-24T02:13:03.191Z,47.65
2022-08-24T02:14:06.156Z,47.20
2022-08-24T02:15:09.637Z,46.58
2022-08-24T02:16:12.379Z,48.92
2022-08-24T02:17:14.505Z,48.97
2022-08-24T02:18:16.583Z,47.88
2022-08-24T02:19:19.358Z,47.00
2022-08-24T02:20:21.983Z,49.38
2022-08-24T02:21:25.809Z,48.70
2022-08-24T02:22:28.164Z,48.65
2022-08-24T02:23:31.455Z,48.90
2022-08-24T02:24:35.753Z,50.13
2022-08-24T02:25:38.289Z,49.40
2022-08-24T02:26:40.890Z,48.63
2022-08-24T02:27:45.909Z,49.92
2022-08-24T02:28:48.902Z,48.50
2022-08-24T02:29:50.939Z,51.35
2022-08-24T02:30:53.781Z,49.03
2022-08-24T02:31:57.868Z,49.20
2022-08-24T02:33:00.485Z,49.10
2022-08-24T02:34:03.128Z,50.08
2022-08-24T02:35:06.067Z,48.85
2022-08-24T02:36:25.842Z,50.47
2022-08-24T02:37:31.691Z,47.08
2022-08-24T02:38:34.518Z,49.53
2022-08-24T02:39:44.176Z,48.88
2022-08-24T02:40:50.325Z,48.65
2022-08-24T02:41:53.071Z,47.78
2022-08-24T02:42:55.912Z,49.90
2022-08-24T02:43:59.803Z,49.85
2022-08-24T02:45:04.263Z,49.53
2022-08-24T02:46:17.963Z,50.25
2022-08-24T02:47:20.413Z,51.05
2022-08-24T02:48:22.704Z,52.00
2022-08-24T02:49:26.767Z,50.40
2022-08-24T02:50:29.225Z,49.85
2022-08-24T02:51:42.259Z,50.55
2022-08-24T02:52:47.844Z,50.30
2022-08-24T02:53:50.537Z,49.17
2022-08-24T02:54:52.848Z,50.70
2022-08-24T02:55:55.335Z,51.40
2022-08-24T02:56:57.691Z,50.92
2022-08-24T02:58:01.078Z,50.10
2022-08-24T02:59:03.986Z,50.65
2022-08-24T03:00:10.588Z,48.92
2022-08-24T03:01:23.940Z,48.67
2022-08-24T03:02:32.427Z,50.67
2022-08-24T03:03:34.757Z,52.05
2022-08-24T03:04:36.975Z,51.42
2022-08-24T03:05:39.924Z,51.08
2022-08-24T03:06:44.820Z,51.25
2022-08-24T03:07:47.249Z,49.05
2022-08-24T03:08:54.700Z,47.92
2022-08-24T03:09:59.074Z,47.85
2022-08-24T03:11:01.528Z,47.65
2022-08-24T03:12:04.178Z,46.83
2022-08-24T03:13:07.874Z,47.80
2022-08-24T03:14:10.459Z,47.60
2022-08-24T03:15:13.480Z,48.40
2022-08-24T03:16:19.095Z,48.70
2022-08-24T03:17:21.476Z,48.58
2022-08-24T03:18:26.024Z,47.45
2022-08-24T03:19:28.695Z,47.92
2022-08-24T03:20:31.287Z,48.08
2022-08-24T03:21:33.854Z,48.40
2022-08-24T03:22:36.136Z,47.42
2022-08-24T03:23:38.176Z,47.08
2022-08-24T03:24:40.251Z,46.90
2022-08-24T03:25:42.375Z,47.22
2022-08-24T03:26:44.802Z,46.10
2022-08-24T03:27:48.178Z,45.95
2022-08-24T03:28:50.963Z,47.25
2022-08-24T03:29:54.180Z,46.38
2022-08-24T03:30:56.860Z,47.38
2022-08-24T03:31:59.724Z,45.05
2022-08-24T03:33:02.259Z,47.47
2022-08-24T03:34:05.246Z,47.00
2022-08-24T03:35:08.288Z,47.35
2022-08-24T03:36:14.103Z,45.08
2022-08-24T03:37:16.966Z,46.35
2022-08-24T03:38:19.778Z,45.97
2022-08-24T03:39:21.936Z,46.15
2022-08-24T03:40:28.630Z,44.33
2022-08-24T03:41:32.319Z,45.55
2022-08-24T03:42:39.826Z,46.00
2022-08-24T03:43:49.174Z,45.30
2022-08-24T03:44:53.765Z,42.97
2022-08-24T03:45:55.970Z,44.08
2022-08-24T03:47:03.961Z,44.33
2022-08-24T03:48:06.649Z,43.10
2022-08-24T03:49:10.528Z,43.75
2022-08-24T03:50:14.003Z,43.17
2022-08-24T03:51:20.138Z,44.15
2022-08-24T03:52:24.737Z,43.15
2022-08-24T03:53:28.286Z,43.85
2022-08-24T03:54:33.986Z,40.80
2022-08-24T03:55:36.619Z,41.55
2022-08-24T03:56:39.508Z,41.25
2022-08-24T03:57:41.604Z,40.85
2022-08-24T03:58:44.443Z,40.72
2022-08-24T03:59:47.474Z,39.03
2022-08-24T04:00:50.284Z,36.33
2022-08-24T04:01:56.656Z,36.15
2022-08-24T04:03:00.622Z,34.57
2022-08-24T04:04:05.479Z,36.67
2022-08-24T04:05:12.496Z,37.22
2022-08-24T04:06:18.383Z,36.33
2022-08-24T04:07:28.014Z,33.58
2022-08-24T04:08:32.678Z,32.90
2022-08-24T04:09:35.347Z,31.85
2022-08-24T04:10:38.550Z,32.70
2022-08-24T04:11:41.636Z,32.55
2022-08-24T04:12:45.153Z,32.05
2022-08-24T04:13:52.500Z,32.15
2022-08-24T04:14:57.856Z,31.75
2022-08-24T04:16:07.226Z,30.90
2022-08-24T04:17:14.439Z,30.90
2022-08-24T04:18:20.161Z,30.45
2022-08-24T04:19:22.932Z,29.73
2022-08-24T04:20:26.296Z,29.63
2022-08-24T04:21:31.578Z,30.90
2022-08-24T04:22:38.050Z,30.25
2022-08-24T04:23:47.206Z,29.30
2022-08-24T04:24:52.314Z,29.25
2022-08-24T04:26:04.454Z,29.73
2022-08-24T04:27:06.815Z,30.02
2022-08-24T04:28:09.483Z,30.30
2022-08-24T04:29:17.741Z,30.23
2022-08-24T04:30:28.984Z,30.60
2022-08-24T04:31:40.658Z,29.70
2022-08-24T04:32:43.221Z,28.58
2022-08-24T04:33:49.909Z,29.40
2022-08-24T04:34:58.261Z,28.23
2022-08-24T04:36:02.821Z,29.17
2022-08-24T04:37:11.331Z,28.80
2022-08-24T04:38:16.442Z,28.08
2022-08-24T04:39:28.542Z,28.33
2022-08-24T04:41:00.202Z,27.77
2022-08-24T04:42:03.732Z,51.67
2022-08-24T04:43:11.736Z,27.20
2022-08-24T04:44:14.676Z,28.90
2022-08-24T04:45:16.903Z,28.50
2022-08-24T04:46:20.220Z,28.38
2022-08-24T04:47:23.023Z,28.85
2022-08-24T04:48:25.330Z,28.25
2022-08-24T04:49:27.751Z,28.60
2022-08-24T04:50:31.088Z,28.55
2022-08-24T04:51:36.570Z,27.60
2022-08-24T04:52:39.847Z,28.30
2022-08-24T04:53:42.829Z,28.30
2022-08-24T04:54:45.578Z,28.92
2022-08-24T04:55:55.658Z,30.52
2022-08-24T04:56:59.851Z,41.85
2022-08-24T04:58:02.035Z,37.40
2022-08-24T04:59:06.009Z,29.25
2022-08-24T05:00:35.557Z,29.65
2022-08-24T05:01:48.635Z,27.75
2022-08-24T05:02:55.635Z,29.52
2022-08-24T05:03:59.647Z,30.67
2022-08-24T05:05:03.932Z,31.73
2022-08-24T05:06:15.278Z,31.40
2022-08-24T05:07:18.629Z,33.25
2022-08-24T05:08:21.203Z,32.90
2022-08-24T05:09:24.256Z,32.10
2022-08-24T05:10:33.826Z,32.10
2022-08-24T05:11:42.539Z,35.78
2022-08-24T05:12:55.294Z,35.50
2022-08-24T05:13:59.748Z,34.65
2022-08-24T05:15:03.552Z,35.38
2022-08-24T05:16:24.479Z,34.20
2022-08-24T05:17:31.577Z,34.60
2022-08-24T05:18:35.458Z,33.97
2022-08-24T05:19:39.602Z,32.42
2022-08-24T05:20:47.142Z,34.55
2022-08-24T05:21:50.492Z,33.67
2022-08-24T05:22:56.315Z,32.65
2022-08-24T05:24:01.009Z,32.67
2022-08-24T05:25:07.357Z,32.55
2022-08-24T05:26:16.634Z,32.55
2022-08-24T05:27:19.771Z,30.40
2022-08-24T05:28:27.432Z,31.02
2022-08-24T05:29:36.014Z,29.40
2022-08-24T05:30:42.679Z,29.45
2022-08-24T05:31:46.509Z,29.92
2022-08-24T05:32:49.897Z,27.95
2022-08-24T05:33:53.482Z,27.08
2022-08-24T05:34:56.259Z,26.80
2022-08-24T05:35:59.137Z,26.73
2022-08-24T05:37:01.360Z,27.08
2022-08-24T05:38:23.882Z,25.23
2022-08-24T05:39:26.526Z,25.92
2022-08-24T05:40:33.394Z,26.67
2022-08-24T05:41:46.849Z,26.17
2022-08-24T05:42:57.415Z,26.92
2022-08-24T05:43:59.632Z,24.52
2022-08-24T05:45:17.021Z,25.30
2022-08-24T05:46:21.078Z,25.10
2022-08-24T05:47:23.451Z,23.45
2022-08-24T05:48:27.441Z,25.45
2022-08-24T05:49:53.865Z,22.90
2022-08-24T05:50:57.470Z,23.05
2022-08-24T05:52:04.236Z,23.02
2022-08-24T05:53:06.617Z,22.17
2022-08-24T05:54:11.545Z,21.80
2022-08-24T05:55:42.522Z,21.27
2022-08-24T05:56:45.764Z,21.55
2022-08-24T05:57:47.854Z,21.42
2022-08-24T05:59:58.523Z,20.75
2022-08-24T06:01:10.666Z,20.13
2022-08-24T06:02:13.492Z,19.77
2022-08-24T06:03:17.235Z,18.98
2022-08-24T06:04:25.190Z,18.45
2022-08-24T06:05:28.563Z,18.92
2022-08-24T06:06:32.496Z,19.23
2022-08-24T06:07:34.674Z,18.17
2022-08-24T06:08:41.454Z,18.40
2022-08-24T06:09:45.939Z,17.75
2022-08-24T06:10:48.299Z,18.30
2022-08-24T06:11:50.892Z,28.48
2022-08-24T06:12:53.823Z,18.50
2022-08-24T06:14:00.290Z,17.60
2022-08-24T06:15:06.248Z,17.88
2022-08-24T06:16:21.273Z,17.52
2022-08-24T06:17:25.098Z,17.17
2022-08-24T06:18:27.443Z,17.42
2022-08-24T06:19:30.283Z,17.67
2022-08-24T06:20:39.238Z,16.98
2022-08-24T06:21:42.239Z,16.98
2022-08-24T06:22:44.699Z,16.45
2022-08-24T06:23:47.335Z,16.85
2022-08-24T06:25:08.246Z,18.25
2022-08-24T06:26:31.514Z,17.20
2022-08-24T06:27:34.346Z,16.60
2022-08-24T06:28:39.872Z,16.55
2022-08-24T06:29:41.945Z,17.05
2022-08-24T06:31:07.815Z,19.45
2022-08-24T06:32:11.876Z,21.40
2022-08-24T06:33:13.972Z,16.77
2022-08-24T06:34:19.609Z,16.42
2022-08-24T06:35:23.335Z,16.45
2022-08-24T06:36:25.936Z,15.93
2022-08-24T06:37:29.448Z,16.02
2022-08-24T06:38:32.436Z,15.00
2022-08-24T06:39:35.144Z,14.68
2022-08-24T06:40:38.093Z,14.73
2022-08-24T06:41:41.532Z,15.20
2022-08-24T06:42:47.540Z,14.45
2022-08-24T06:43:59.332Z,13.73
2022-08-24T06:45:18.032Z,14.10
2022-08-24T06:46:24.954Z,13.80
2022-08-24T06:47:29.200Z,13.85
2022-08-24T06:48:35.520Z,12.98
2022-08-24T06:49:38.922Z,12.75
2022-08-24T06:50:41.160Z,13.07
2022-08-24T06:51:45.473Z,12.02
2022-08-24T06:52:50.827Z,12.65
2022-08-24T06:53:56.263Z,11.95
2022-08-24T06:54:59.305Z,11.50
2022-08-24T06:56:01.573Z,11.55
2022-08-24T06:57:10.406Z,12.23
2022-08-24T06:58:14.811Z,12.43
2022-08-24T06:59:17.060Z,12.93
2022-08-24T07:00:19.925Z,11.30
2022-08-24T07:01:27.624Z,11.32
2022-08-24T07:02:34.153Z,11.60
2022-08-24T07:03:36.382Z,10.65
2022-08-24T07:04:54.560Z,10.68
2022-08-24T07:06:15.728Z,10.88
2022-08-24T07:07:18.640Z,11.20
2022-08-24T07:08:21.637Z,10.43
2022-08-24T07:09:27.544Z,10.57
2022-08-24T07:10:30.667Z,9.68
2022-08-24T07:11:35.221Z,10.20
2022-08-24T07:12:37.674Z,10.23
2022-08-24T07:13:40.083Z,9.90
2022-08-24T07:14:43.466Z,8.38
2022-08-24T07:15:46.236Z,9.52
2022-08-24T07:16:49.371Z,9.63
2022-08-24T07:17:54.728Z,10.27
2022-08-24T07:18:58.387Z,8.52
2022-08-24T07:20:02.587Z,9.07
2022-08-24T07:21:23.710Z,8.98
2022-08-24T07:22:27.127Z,8.98
2022-08-24T07:23:41.216Z,10.57
2022-08-24T07:24:48.961Z,9.25
2022-08-24T07:25:56.097Z,8.82
2022-08-24T07:27:01.360Z,8.63
2022-08-24T07:28:09.386Z,9.75
2022-08-24T07:29:45.942Z,8.98
2022-08-24T07:30:42.711Z,9.35
2022-08-24T07:31:46.303Z,9.35
2022-08-24T07:33:09.396Z,8.50
2022-08-24T07:34:13.387Z,9.15
2022-08-24T07:35:18.494Z,10.38
2022-08-24T07:36:22.478Z,8.48
2022-08-24T07:37:40.748Z,9.40
2022-08-24T07:38:43.827Z,8.90
2022-08-24T07:39:46.479Z,9.60
2022-08-24T07:41:14.730Z,9.50
2022-08-24T07:42:25.360Z,9.23
2022-08-24T07:43:32.923Z,8.77
2022-08-24T07:44:36.036Z,8.90
2022-08-24T07:45:42.384Z,8.68
2022-08-24T07:46:45.522Z,8.43
2022-08-24T07:47:55.392Z,9.00
2022-08-24T07:49:33.052Z,8.90
2022-08-24T07:50:40.113Z,7.63
2022-08-24T07:51:46.704Z,8.00
2022-08-24T07:52:49.465Z,8.10
2022-08-24T07:53:53.819Z,7.57
2022-08-24T07:55:02.546Z,7.88
2022-08-24T07:56:06.024Z,8.80
2022-08-24T07:57:12.285Z,8.05
2022-08-24T07:58:14.440Z,7.88
2022-08-24T07:59:18.428Z,8.15
2022-08-24T08:00:22.398Z,7.82
2022-08-24T08:01:33.803Z,7.50
2022-08-24T08:02:38.042Z,7.10
2022-08-24T08:03:40.778Z,6.60
2022-08-24T08:04:43.396Z,6.07
2022-08-24T08:05:49.728Z,6.93
2022-08-24T08:07:59.211Z,6.32
2022-08-24T08:09:05.522Z,6.05
2022-08-24T08:10:09.446Z,6.13
2022-08-24T08:11:13.782Z,5.20
2022-08-24T08:12:16.472Z,5.20
2022-08-24T08:13:29.827Z,5.20
2022-08-24T08:14:32.728Z,5.70
2022-08-24T08:15:37.538Z,5.30
2022-08-24T08:16:43.242Z,5.18
2022-08-24T08:17:46.391Z,5.47
2022-08-24T08:19:11.297Z,5.28
2022-08-24T08:20:18.797Z,5.00
2022-08-24T08:21:40.469Z,5.13
2022-08-24T08:23:02.806Z,5.53
2022-08-24T08:24:16.937Z,5.05
2022-08-24T08:25:27.542Z,5.95
2022-08-24T08:26:29.897Z,4.65
2022-08-24T08:27:41.011Z,3.90
2022-08-24T08:28:44.098Z,4.25
2022-08-24T08:29:46.230Z,4.10
2022-08-24T08:30:49.524Z,4.40
2022-08-24T08:31:52.424Z,4.25
2022-08-24T08:32:55.395Z,4.40
2022-08-24T08:33:57.724Z,4.53
2022-08-24T08:35:02.408Z,4.43
2022-08-24T08:36:10.958Z,4.35
2022-08-24T08:37:19.935Z,4.40
2022-08-24T08:38:22.647Z,4.55
2022-08-24T08:39:26.430Z,4.60
2022-08-24T08:41:00.493Z,4.22
2022-08-24T08:42:21.530Z,4.97
2022-08-24T08:43:38.547Z,4.60
2022-08-24T08:44:49.963Z,4.55
2022-08-24T08:46:07.897Z,4.18
2022-08-24T08:47:50.098Z,4.15
2022-08-24T08:49:20.506Z,4.78
2022-08-24T08:50:32.293Z,3.92
2022-08-24T08:51:49.663Z,4.22
2022-08-24T08:53:15.795Z,4.20
2022-08-24T08:54:22.651Z,4.35
2022-08-24T08:55:40.064Z,4.35
2022-08-24T08:57:05.580Z,4.10
2022-08-24T08:58:43.671Z,4.60
2022-08-24T09:00:33.166Z,4.55
2022-08-24T09:02:07.580Z,4.32
2022-08-24T09:03:39.679Z,4.10
2022-08-24T09:05:00.477Z,3.65
2022-08-24T09:06:23.817Z,3.78
2022-08-24T09:07:55.002Z,4.70
2022-08-24T09:09:22.338Z,3.95
2022-08-24T09:10:27.584Z,4.00
2022-08-24T09:11:56.716Z,3.85
2022-08-24T09:13:12.791Z,3.90
2022-08-24T09:15:02.856Z,3.60
2022-08-24T09:16:41.508Z,3.72
2022-08-24T09:17:53.182Z,3.78
2022-08-24T09:19:13.821Z,4.05
2022-08-24T09:20:57.850Z,3.88
2022-08-24T09:22:17.242Z,3.60
2022-08-24T09:23:44.467Z,4.00
2022-08-24T09:24:52.751Z,3.55
2022-08-24T09:26:30.084Z,3.33
2022-08-24T09:27:51.400Z,3.60
2022-08-24T09:29:13.720Z,3.80
2022-08-24T09:30:21.215Z,4.03
2022-08-24T09:31:29.317Z,3.88
2022-08-24T09:32:51.114Z,4.20
2022-08-24T09:34:27.064Z,3.00
2022-08-24T09:35:54.065Z,3.35
2022-08-24T09:37:05.195Z,3.13
2022-08-24T09:38:39.915Z,3.15
2022-08-24T09:40:00.276Z,3.70
2022-08-24T09:41:19.115Z,3.13
2022-08-24T09:42:26.937Z,2.58
2022-08-24T09:43:54.064Z,2.80
2022-08-24T09:45:25.152Z,3.00
2022-08-24T09:47:04.933Z,3.65
2022-08-24T09:48:25.074Z,2.90
2022-08-24T09:50:00.779Z,3.92
2022-08-24T09:51:37.289Z,3.00
2022-08-24T09:53:06.275Z,3.10
2022-08-24T09:54:19.289Z,2.75
2022-08-24T09:55:59.794Z,3.40
2022-08-24T09:57:44.325Z,2.70
2022-08-24T09:59:20.330Z,2.70
2022-08-24T10:00:26.967Z,3.67
2022-08-24T10:01:32.848Z,4.05
2022-08-24T10:02:41.547Z,3.33
2022-08-24T10:03:44.358Z,2.97
2022-08-24T10:04:57.709Z,2.67
2022-08-24T10:06:09.411Z,2.97
2022-08-24T10:07:43.265Z,2.80
2022-08-24T10:09:19.293Z,3.25
2022-08-24T10:10:41.431Z,2.75
2022-08-24T10:11:56.347Z,3.10
2022-08-24T10:13:04.647Z,2.72
2022-08-24T10:14:13.410Z,3.05
2022-08-24T10:15:22.637Z,2.63
2022-08-24T10:17:06.286Z,2.92
2022-08-24T10:18:32.281Z,3.53
2022-08-24T10:19:46.340Z,3.40
2022-08-24T10:21:03.218Z,2.95
2022-08-24T10:22:20.810Z,3.50
2022-08-24T10:23:23.003Z,3.75
2022-08-24T10:24:40.114Z,3.22
2022-08-24T10:26:08.184Z,3.30
2022-08-24T10:27:22.608Z,4.78
2022-08-24T10:28:44.997Z,3.20
2022-08-24T10:30:25.992Z,3.00
2022-08-24T10:31:39.346Z,4.00
2022-08-24T10:33:00.298Z,3.03
2022-08-24T10:34:23.255Z,3.00
2022-08-24T10:35:35.317Z,3.45
2022-08-24T10:37:18.003Z,3.10
2022-08-24T10:38:53.635Z,3.05
2022-08-24T10:40:28.637Z,3.15
2022-08-24T10:41:55.477Z,3.47
2022-08-24T10:43:34.389Z,2.70
2022-08-24T10:44:50.191Z,3.00
2022-08-24T10:46:10.378Z,2.80
2022-08-24T10:47:36.933Z,2.75
2022-08-24T10:49:18.613Z,3.05
2022-08-24T10:50:31.018Z,4.70
2022-08-24T10:51:40.611Z,3.20
2022-08-24T10:52:49.028Z,3.00
2022-08-24T10:53:54.073Z,3.42
2022-08-24T10:54:56.686Z,2.70
2022-08-24T10:56:05.768Z,2.50
2022-08-24T10:57:23.052Z,2.80
2022-08-24T10:58:45.788Z,2.90
2022-08-24T11:00:22.555Z,2.90
2022-08-24T11:01:35.197Z,2.80
2022-08-24T11:02:39.639Z,2.83
2022-08-24T11:03:58.970Z,2.97
2022-08-24T11:05:10.406Z,2.75
2022-08-24T11:06:17.767Z,3.17
2022-08-24T11:07:22.213Z,3.13
2022-08-24T11:08:29.603Z,3.20
2022-08-24T11:09:45.355Z,3.50
2022-08-24T11:11:07.566Z,3.30
2022-08-24T11:12:38.611Z,3.00
2022-08-24T11:13:54.461Z,3.15
2022-08-24T11:15:00.680Z,2.50
2022-08-24T11:16:04.311Z,2.75
2022-08-24T11:17:24.517Z,2.67
2022-08-24T11:18:27.313Z,2.38
2022-08-24T11:19:35.478Z,3.35
2022-08-24T11:20:43.405Z,2.55
2022-08-24T11:21:49.658Z,2.58
2022-08-24T11:23:07.052Z,2.70
2022-08-24T11:24:28.309Z,3.20
2022-08-24T11:25:33.277Z,2.83
2022-08-24T11:27:02.857Z,2.90
2022-08-24T11:28:29.700Z,2.83
2022-08-24T11:29:50.088Z,2.50
2022-08-24T11:30:52.133Z,2.67
2022-08-24T11:31:54.397Z,2.67
2022-08-24T11:32:59.845Z,3.10
2022-08-24T11:34:10.861Z,2.75
2022-08-24T11:35:18.814Z,3.00
2022-08-24T11:36:26.138Z,2.70
2022-08-24T11:37:39.883Z,2.78
2022-08-24T11:38:45.681Z,3.67
2022-08-24T11:39:48.109Z,2.97
2022-08-24T11:40:52.628Z,3.13
2022-08-24T11:42:33.081Z,2.63
2022-08-24T11:43:49.866Z,2.38
2022-08-24T11:45:32.462Z,2.42
2022-08-24T11:46:34.711Z,3.00
2022-08-24T11:48:00.145Z,2.40
2022-08-24T11:49:13.688Z,2.95
2022-08-24T11:50:36.207Z,2.30
2022-08-24T11:51:55.494Z,2.40
2022-08-24T11:53:12.939Z,2.70
2022-08-24T11:54:27.403Z,2.42
2022-08-24T11:55:46.708Z,2.40
2022-08-24T11:57:15.269Z,2.60
2022-08-24T11:58:17.548Z,1.95
2022-08-24T11:59:29.115Z,2.33
2022-08-24T12:00:47.460Z,2.15
2022-08-24T12:01:57.794Z,2.00
2022-08-24T12:03:12.437Z,2.35
2022-08-24T12:04:21.001Z,2.40
2022-08-24T12:05:40.778Z,2.30
2022-08-24T12:07:13.748Z,2.30
2022-08-24T12:08:27.959Z,2.25
2022-08-24T12:09:47.376Z,2.10
2022-08-24T12:11:23.809Z,1.85
2022-08-24T12:12:46.655Z,2.00
2022-08-24T12:13:53.216Z,2.00
2022-08-24T12:15:12.378Z,1.85
2022-08-24T12:16:35.918Z,2.00
2022-08-24T12:17:56.237Z,2.22
2022-08-24T12:19:02.967Z,2.38
2022-08-24T12:20:27.657Z,2.15
2022-08-24T12:21:32.892Z,2.05
2022-08-24T12:22:36.454Z,2.15
2022-08-24T12:23:43.991Z,2.25
2022-08-24T12:24:49.686Z,1.95
2022-08-24T12:26:02.664Z,2.30
2022-08-24T12:27:18.429Z,2.22
2022-08-24T12:28:29.669Z,2.72
2022-08-24T12:29:40.995Z,2.40
2022-08-24T12:30:43.541Z,2.42
2022-08-24T12:32:11.635Z,2.10
2022-08-24T12:34:49.719Z,2.00
2022-08-24T12:35:59.006Z,2.47
2022-08-24T12:37:16.033Z,2.33
2022-08-24T12:38:36.033Z,3.03
2022-08-24T12:40:03.116Z,2.10
2022-08-24T12:41:33.521Z,1.90
2022-08-24T12:43:01.213Z,1.80
2022-08-24T12:44:13.228Z,1.98
2022-08-24T12:45:17.646Z,2.40
2022-08-24T12:46:27.199Z,2.13
2022-08-24T12:47:37.038Z,2.30
2022-08-24T12:49:28.017Z,2.25
2022-08-24T12:50:54.535Z,3.47
2022-08-24T12:52:24.263Z,2.80
2022-08-24T12:53:42.231Z,2.67
2022-08-24T12:55:06.255Z,2.28
2022-08-24T12:56:20.509Z,2.33
2022-08-24T12:57:51.851Z,2.38
2022-08-24T12:59:17.526Z,2.65
2022-08-24T13:00:27.308Z,2.70
2022-08-24T13:01:34.179Z,2.05
2022-08-24T13:02:45.127Z,2.17
2022-08-24T13:04:07.224Z,2.30
2022-08-24T13:05:15.674Z,2.38
2022-08-24T13:06:38.430Z,2.92
2022-08-24T13:07:46.835Z,2.38
2022-08-24T13:08:51.514Z,2.45
2022-08-24T13:09:53.550Z,2.17
2022-08-24T13:11:06.276Z,2.50
2022-08-24T13:12:42.095Z,2.42
2022-08-24T13:13:59.436Z,2.83
2022-08-24T13:15:23.682Z,2.60
2022-08-24T13:17:03.970Z,2.70
2022-08-24T13:18:09.716Z,2.38
2022-08-24T13:19:15.465Z,2.30
2022-08-24T13:20:26.104Z,2.13
2022-08-24T13:21:39.319Z,2.53
2022-08-24T13:23:00.222Z,2.30
2022-08-24T13:24:30.663Z,2.90
2022-08-24T13:25:49.948Z,2.42
2022-08-24T13:26:56.673Z,2.38
2022-08-24T13:28:12.393Z,2.40
2022-08-24T13:29:16.747Z,2.38
2022-08-24T13:30:23.791Z,2.25
2022-08-24T13:31:43.675Z,2.53
2022-08-24T13:33:00.971Z,2.47
2022-08-24T13:34:06.385Z,2.00
2022-08-24T13:35:30.917Z,2.10
2022-08-24T13:37:08.815Z,2.95
2022-08-24T13:38:25.086Z,2.45
2022-08-24T13:39:41.856Z,2.30
2022-08-24T13:40:52.836Z,2.38
2022-08-24T13:42:29.922Z,2.13
2022-08-24T13:43:59.743Z,2.90
2022-08-24T13:45:23.165Z,2.60
2022-08-24T13:47:11.980Z,2.33
2022-08-24T13:48:42.768Z,2.08
2022-08-24T13:50:03.254Z,3.00
2022-08-24T13:51:35.761Z,2.60
2022-08-24T13:53:19.616Z,1.90
2022-08-24T13:54:42.235Z,3.97
2022-08-24T13:56:09.966Z,2.28
2022-08-24T13:57:22.227Z,2.42
2022-08-24T13:58:47.319Z,3.38
2022-08-24T14:00:27.019Z,2.90
2022-08-24T14:02:16.453Z,2.63
2022-08-24T14:03:37.150Z,2.50
2022-08-24T14:05:07.043Z,2.40
2022-08-24T14:06:41.292Z,2.80
2022-08-24T14:08:14.118Z,2.05
2022-08-24T14:09:39.605Z,2.20
2022-08-24T14:11:15.184Z,2.20
2022-08-24T14:12:34.956Z,2.70
2022-08-24T14:13:36.974Z,2.58
2022-08-24T14:14:57.050Z,2.35
2022-08-24T14:16:33.004Z,3.10
2022-08-24T14:17:55.494Z,2.30
2022-08-24T14:19:19.505Z,2.45
2022-08-24T14:20:58.773Z,2.30
2022-08-24T14:22:30.273Z,2.28
2022-08-24T14:23:47.923Z,2.30
2022-08-24T14:25:12.150Z,2.50
2022-08-24T14:26:42.184Z,2.30
2022-08-24T14:27:47.713Z,3.55
2022-08-24T14:28:50.532Z,2.33
2022-08-24T14:29:53.336Z,2.85
2022-08-24T14:31:28.676Z,6.07
2022-08-24T14:32:31.310Z,2.28
2022-08-24T14:33:44.622Z,2.85
2022-08-24T14:35:14.747Z,6.97
2022-08-24T14:36:42.260Z,2.90
2022-08-24T14:38:01.823Z,2.67
2022-08-24T14:39:13.601Z,2.50
2022-08-24T14:40:34.864Z,2.80
2022-08-24T14:41:54.612Z,2.50
2022-08-24T14:44:17.672Z,2.63
2022-08-24T14:45:53.218Z,2.80
2022-08-24T14:47:14.393Z,2.60
2022-08-24T14:48:36.506Z,2.80
2022-08-24T14:50:17.442Z,3.17
2022-08-24T14:51:46.231Z,3.33
2022-08-24T14:53:21.928Z,4.20
2022-08-24T14:54:39.121Z,2.70
2022-08-24T14:56:08.295Z,3.00
2022-08-24T14:57:56.886Z,2.75
2022-08-24T14:59:11.991Z,2.80
2022-08-24T15:00:14.429Z,2.92
2022-08-24T15:01:19.254Z,3.03
2022-08-24T15:02:37.630Z,3.03
2022-08-24T15:04:12.366Z,2.78
2022-08-24T15:05:23.643Z,3.45
2022-08-24T15:06:37.112Z,3.00
2022-08-24T15:07:39.399Z,2.90
2022-08-24T15:08:43.465Z,3.25
2022-08-24T15:09:46.637Z,2.90
2022-08-24T15:10:59.753Z,2.85
2022-08-24T15:12:30.975Z,2.97
2022-08-24T15:13:54.250Z,2.90
2022-08-24T15:15:07.423Z,3.13
2022-08-24T15:16:14.872Z,3.50
2022-08-24T15:17:22.083Z,8.45
2022-08-24T15:18:36.851Z,13.32
2022-08-24T15:20:03.671Z,19.35
2022-08-24T15:21:22.442Z,23.58
2022-08-24T15:23:42.917Z,3.42
2022-08-24T15:24:52.887Z,4.00
2022-08-24T15:26:14.072Z,3.78
2022-08-24T15:27:43.091Z,3.60
2022-08-24T15:30:02.542Z,4.20
2022-08-24T15:31:13.842Z,4.47
2022-08-24T15:32:17.087Z,4.15
2022-08-24T15:33:20.525Z,5.05
2022-08-24T15:34:43.294Z,4.10
2022-08-24T15:35:49.027Z,3.72
2022-08-24T15:37:01.740Z,3.25
2022-08-24T15:38:34.183Z,4.00
2022-08-24T15:39:36.714Z,4.32
2022-08-24T15:40:39.145Z,4.03
2022-08-24T15:41:48.265Z,3.80
2022-08-24T15:42:51.418Z,4.32